Aviation Digital Data Service (ADDS)

Output produced by METARs form (0520 UTC 03 July 2022)
found at http://aviationweather.gov/metar/data/
 
METAR text: EPRZ 030500Z VRB02KT 9999 OVC010 18/16 Q1021
Conditions at: EPRZ (RZESZOW/JASIONKA, PL) observed 0500 UTC 03 July 2022
Temperature: 18.0°C (64°F)
Dewpoint: 16.0°C (61°F) [RH = 88%]
Pressure (altimeter): 30.15 inches Hg (1021.0 mb)
Winds: variable direction winds at 2 MPH (2 knots; 1.0 m/s)
Visibility: 6 or more miles (10+ km)
Ceiling: 1000 feet AGL
Clouds: overcast cloud deck at 1000 feet AGL
Weather: no significant weather observed at this time

METAR text: EPRZ 030430Z 32003KT 280V010 9999 OVC011 18/15 Q1021
Conditions at: EPRZ (RZESZOW/JASIONKA, PL) observed 0430 UTC 03 July 2022
Temperature: 18.0°C (64°F)
Dewpoint: 15.0°C (59°F) [RH = 83%]
Pressure (altimeter): 30.15 inches Hg (1021.0 mb)
Winds: from the NW (320 degrees) at 3 MPH (3 knots; 1.5 m/s)
Visibility: 6 or more miles (10+ km)
Ceiling: 1100 feet AGL
Clouds: overcast cloud deck at 1100 feet AGL
Weather: no significant weather observed at this time

Forecast for: AMD
Text: TAF AMD EPRZ 030316Z 0303/0324 32003KT 9999 BKN011 OVC035
Forecast period: 0300 to 0500 UTC 03 July 2022
Forecast type: FROM: standard forecast or significant change
Winds: from the NW (320 degrees) at 3 MPH (3 knots; 1.5 m/s)
Visibility: 6 or more miles (10+ km)
Ceiling: 1100 feet AGL
Clouds: broken clouds at 1100 feet AGL
overcast cloud deck at 3500 feet AGL
Weather: no significant weather forecast for this period
Text: PROB40
Forecast period: 0300 to 0500 UTC 03 July 2022
Forecast type: TEMPORARY: The following changes expected for less than half the time period
Visibility: missing
Ceiling: 900 feet AGL
Clouds: broken clouds at 900 feet AGL
overcast cloud deck at 1100 feet AGL
Weather: no significant weather forecast for this period
Text: TEMPO 0303/0305 BKN009 OVC011
Forecast period: 0500 UTC 03 July 2022 to 0000 UTC 04 July 2022
Forecast type: BECOMING: Conditions expected to become as follows by 0800 UTC 03 July 2022
Winds: from the NW (320 degrees) at 3 MPH (3 knots; 1.5 m/s)
Visibility: 6 or more miles (10+ km)
Ceiling: 3000 feet AGL
Clouds: broken clouds at 3000 feet AGL
Weather: no significant weather forecast for this period